This is the latest recevied weather packets stored in our database for station/object SQ9RHX-13. If no packets are shown the sender has not sent any weather packets the latest 10 day(s).
| Time | Temp. | Humidity | Pressure | Rain* | Wind** | Luminosity | Snow |
|---|---|---|---|---|---|---|---|
| 1777455002 | 10° C | 28% | 1033 hPa | 0 mm | - | 627 W/m² | - |
| 1777454703 | 10° C | 30% | 1033 hPa | 0 mm | - | 623 W/m² | - |
| 1777454404 | 10° C | 31% | 1032.7 hPa | 0 mm | - | 617 W/m² | - |
| 1777454104 | 10° C | 27% | 1032.8 hPa | 0 mm | - | 608 W/m² | - |
| 1777453804 | 10° C | 28% | 1032.9 hPa | 0 mm | - | 604 W/m² | - |
| 1777453502 | 10° C | 30% | 1032.9 hPa | 0 mm | - | 596 W/m² | - |
| 1777453203 | 10° C | 28% | 1032.9 hPa | 0 mm | - | 589 W/m² | - |
| 1777452904 | 10° C | 28% | 1032.9 hPa | 0 mm | - | 578 W/m² | - |
| 1777452604 | 10° C | 30% | 1032.9 hPa | 0 mm | - | 577 W/m² | - |
| 1777452305 | 10° C | 27% | 1033.2 hPa | 0 mm | - | 565 W/m² | - |
| 1777452003 | 10° C | 27% | 1033 hPa | 0 mm | - | 556 W/m² | - |
| 1777451702 | 10° C | 30% | 1032.9 hPa | 0 mm | - | 545 W/m² | - |
| 1777451403 | 10° C | 32% | 1033 hPa | 0 mm | - | 533 W/m² | - |
| 1777451104 | 9.44° C | 30% | 1033 hPa | 0 mm | - | 526 W/m² | - |
| 1777450802 | 10° C | 32% | 1032.9 hPa | 0 mm | - | 515 W/m² | - |
| 1777450503 | 9.44° C | 31% | 1033 hPa | 0 mm | - | 504 W/m² | - |
| 1777450205 | 8.89° C | 32% | 1033 hPa | 0 mm | - | 491 W/m² | - |
| 1777449903 | 8.89° C | 31% | 1033 hPa | 0 mm | - | 483 W/m² | - |
| 1777449605 | 8.89° C | 34% | 1032.9 hPa | 0 mm | - | 469 W/m² | - |
| 1777449303 | 8.89° C | 32% | 1033 hPa | 0 mm | - | 458 W/m² | - |
| 1777449003 | 8.89° C | 31% | 1033 hPa | 0 mm | - | 450 W/m² | - |
| 1777448703 | 8.33° C | 33% | 1032.8 hPa | 0 mm | - | 433 W/m² | - |
| 1777448405 | 8.33° C | 33% | 1032.8 hPa | 0 mm | - | 424 W/m² | - |
| 1777448103 | 8.33° C | 32% | 1032.8 hPa | 0 mm | - | 410 W/m² | - |
| 1777447803 | 8.33° C | 34% | 1032.7 hPa | 0 mm | - | 399 W/m² | - |
* Rain latest hour (hover to see other rain measurements)
** Current wind speed in m/s (hover to see current wind gust speed)